Time;durP1;ratioP1;P1;durP2;ratioP2;P2;SDS_P1;SDS_P2;PMS_P1;PMS_P2;Temp;Humidity;BMP_temperature;BMP_pressure;BME280_temperature;BME280_humidity;BME280_pressure;Samples;Min_cycle;Max_cycle;Signal;HPM_P1;HPM_P2
2021/07/03 00:00:29;;;;;;;5.75;5.03;;;19.50;99.90;;;;;;5075958;28;20039;-82
2021/07/03 00:02:55;;;;;;;10.48;6.38;;;19.30;99.90;;;;;;5075758;28;20028;-82
2021/07/03 00:05:20;;;;;;;6.53;5.90;;;19.10;99.90;;;;;;5075836;28;20067;-82
2021/07/03 00:07:46;;;;;;;8.82;5.70;;;19.10;99.90;;;;;;5075709;28;20032;-83
2021/07/03 00:10:12;;;;;;;7.22;4.97;;;19.30;99.90;;;;;;5075646;28;20112;-83
2021/07/03 00:12:39;;;;;;;6.10;4.75;;;19.20;99.90;;;;;;5075743;28;20024;-82
2021/07/03 00:15:07;;;;;;;6.15;5.10;;;19.10;99.90;;;;;;5075797;28;20024;-83
2021/07/03 00:17:34;;;;;;;7.22;5.28;;;19.20;99.90;;;;;;5074166;28;20033;-82
2021/07/03 00:19:59;;;;;;;5.78;5.32;;;19.20;99.90;;;;;;5075256;28;20072;-82
2021/07/03 00:22:25;;;;;;;7.40;4.55;;;19.20;99.90;;;;;;5075181;28;20519;-82
2021/07/03 00:24:51;;;;;;;9.75;5.05;;;19.10;99.90;;;;;;5075602;28;20512;-82
2021/07/03 00:27:17;;;;;;;5.97;5.03;;;18.90;99.90;;;;;;5075298;28;20024;-82
2021/07/03 00:29:43;;;;;;;6.80;6.03;;;18.70;99.90;;;;;;5075451;28;20377;-82
2021/07/03 00:32:08;;;;;;;9.35;6.32;;;18.60;99.90;;;;;;5075306;28;20017;-82
2021/07/03 00:34:34;;;;;;;6.10;5.22;;;18.70;99.90;;;;;;5075296;28;20028;-82
2021/07/03 00:37:01;;;;;;;5.30;4.80;;;18.90;99.90;;;;;;5075097;28;20064;-83
2021/07/03 00:39:27;;;;;;;5.75;4.60;;;19.00;99.90;;;;;;5073833;28;20025;-82
2021/07/03 00:41:53;;;;;;;8.00;5.07;;;18.90;99.90;;;;;;5074997;28;20059;-82
2021/07/03 00:44:30;;;;;;;5.28;4.78;;;18.80;99.90;;;;;;5075185;28;20037;-83
2021/07/03 00:46:56;;;;;;;6.65;5.00;;;18.80;99.90;;;;;;5075033;28;20063;-83
2021/07/03 00:49:23;;;;;;;5.82;5.32;;;18.80;99.90;;;;;;5072916;28;20044;-81
2021/07/03 00:51:49;;;;;;;6.13;4.70;;;18.70;99.90;;;;;;5074771;28;20025;-82
2021/07/03 00:54:15;;;;;;;6.22;5.32;;;18.60;99.90;;;;;;5075036;28;20031;-82
2021/07/03 00:56:40;;;;;;;7.78;5.40;;;18.60;99.90;;;;;;5074840;28;20384;-81
2021/07/03 00:59:06;;;;;;;6.63;5.38;;;18.50;99.90;;;;;;5074992;28;20036;-81
2021/07/03 01:01:32;;;;;;;7.53;5.95;;;18.50;99.90;;;;;;5074702;28;20024;-81
2021/07/03 01:03:58;;;;;;;6.28;5.18;;;18.40;99.90;;;;;;5074164;28;20031;-82
2021/07/03 01:06:26;;;;;;;7.15;5.63;;;18.50;99.90;;;;;;5074788;28;20104;-81
2021/07/03 01:08:52;;;;;;;4.93;4.53;;;18.60;99.90;;;;;;5074755;28;20079;-82
2021/07/03 01:11:26;;;;;;;5.95;5.40;;;18.70;99.90;;;;;;5074689;28;20040;-81
2021/07/03 01:13:51;;;;;;;7.82;5.00;;;18.60;99.90;;;;;;5074732;28;20059;-81
2021/07/03 01:16:17;;;;;;;5.65;4.90;;;18.50;99.90;;;;;;5074589;28;20052;-81
2021/07/03 01:18:43;;;;;;;5.70;5.20;;;18.50;99.90;;;;;;5074231;28;20412;-81
2021/07/03 01:21:09;;;;;;;5.97;5.38;;;18.30;99.90;;;;;;5074402;28;20497;-81
2021/07/03 01:23:35;;;;;;;7.93;6.18;;;18.30;99.90;;;;;;5074444;28;20099;-81
2021/07/03 01:26:00;;;;;;;6.43;5.32;;;18.40;99.90;;;;;;5074332;28;20128;-81
2021/07/03 01:28:27;;;;;;;5.93;5.43;;;18.40;99.90;;;;;;5074243;28;20025;-81
2021/07/03 01:30:53;;;;;;;7.82;5.82;;;18.50;99.90;;;;;;5074342;28;20036;-81
2021/07/03 01:33:20;;;;;;;5.80;5.25;;;18.40;99.90;;;;;;5073923;28;20075;-81
2021/07/03 01:35:45;;;;;;;10.05;5.25;;;18.40;99.90;;;;;;5074320;28;20467;-81
2021/07/03 01:38:17;;;;;;;5.90;5.40;;;18.40;99.90;;;;;;5074037;28;20036;-82
2021/07/03 01:40:44;;;;;;;7.55;5.50;;;18.30;99.90;;;;;;5073988;28;20025;-82
2021/07/03 01:43:10;;;;;;;6.20;5.28;;;18.40;99.90;;;;;;5074108;28;20139;-81
2021/07/03 01:45:36;;;;;;;6.63;5.88;;;18.40;99.90;;;;;;5073912;28;20517;-81
2021/07/03 01:48:02;;;;;;;5.78;5.10;;;18.50;99.90;;;;;;5073604;28;20124;-81
2021/07/03 01:50:28;;;;;;;6.40;5.30;;;18.40;99.90;;;;;;5073855;28;20028;-81
2021/07/03 01:52:53;;;;;;;6.80;5.68;;;18.40;99.90;;;;;;5073884;28;20088;-82
2021/07/03 01:55:19;;;;;;;8.82;5.70;;;18.30;99.90;;;;;;5073855;28;20162;-81
2021/07/03 01:57:45;;;;;;;6.32;4.65;;;18.20;99.90;;;;;;5073737;28;20060;-81
2021/07/03 02:00:12;;;;;;;5.28;4.78;;;18.10;99.90;;;;;;5071354;28;20554;-81
2021/07/03 02:02:38;;;;;;;5.95;5.45;;;18.10;99.90;;;;;;5073049;28;20024;-81
2021/07/03 02:05:05;;;;;;;6.97;5.07;;;18.20;99.90;;;;;;5072373;28;20044;-81
2021/07/03 02:07:31;;;;;;;7.50;5.38;;;18.30;99.90;;;;;;5073453;28;20031;-81
2021/07/03 02:09:57;;;;;;;10.23;5.15;;;18.30;99.90;;;;;;5073413;28;20039;-81
2021/07/03 02:12:22;;;;;;;8.68;5.53;;;18.20;99.90;;;;;;5073488;28;20484;-81
2021/07/03 02:14:48;;;;;;;5.70;5.03;;;18.20;99.90;;;;;;5073386;28;20035;-81
2021/07/03 02:17:14;;;;;;;7.90;5.53;;;18.20;99.90;;;;;;5073135;28;20412;-81
2021/07/03 02:19:40;;;;;;;6.13;5.47;;;18.30;99.90;;;;;;5073001;28;20028;-81
2021/07/03 02:22:05;;;;;;;5.72;5.22;;;18.30;99.90;;;;;;5072962;28;20028;-81
2021/07/03 02:24:32;;;;;;;6.90;6.13;;;18.20;99.90;;;;;;5073339;28;20025;-81
2021/07/03 02:26:58;;;;;;;5.60;4.90;;;18.30;99.90;;;;;;5073334;28;20029;-81
2021/07/03 02:29:23;;;;;;;7.40;4.82;;;18.20;99.90;;;;;;5072998;28;20464;-81
2021/07/03 02:31:49;;;;;;;8.07;5.30;;;18.20;99.90;;;;;;5071807;28;20094;-81
2021/07/03 02:34:15;;;;;;;5.05;4.57;;;18.20;99.90;;;;;;5073103;28;20024;-81
2021/07/03 02:36:40;;;;;;;6.10;5.13;;;18.10;99.90;;;;;;5072741;28;20420;-81
2021/07/03 02:39:06;;;;;;;4.82;4.32;;;18.10;99.90;;;;;;5072978;28;20032;-81
2021/07/03 02:41:33;;;;;;;7.40;4.50;;;18.10;99.90;;;;;;5072676;28;20052;-81
2021/07/03 02:44:00;;;;;;;5.30;4.82;;;18.00;99.90;;;;;;5072807;28;20070;-81
2021/07/03 02:46:26;;;;;;;6.82;4.65;;;18.00;99.90;;;;;;5072688;28;20024;-81
2021/07/03 02:48:52;;;;;;;6.80;5.30;;;18.00;99.90;;;;;;5072727;28;20070;-81
2021/07/03 02:51:17;;;;;;;5.68;5.28;;;18.00;99.90;;;;;;5072774;28;20024;-81
2021/07/03 02:53:43;;;;;;;9.40;5.18;;;17.90;99.90;;;;;;5072546;28;20036;-81
2021/07/03 02:56:09;;;;;;;7.30;5.18;;;18.00;99.90;;;;;;5072748;28;20125;-81
2021/07/03 02:58:35;;;;;;;8.43;4.97;;;18.10;99.90;;;;;;5071296;28;20024;-81
2021/07/03 03:01:01;;;;;;;5.78;5.28;;;18.10;99.90;;;;;;5072357;28;20021;-81
2021/07/03 03:03:26;;;;;;;7.63;5.25;;;18.10;99.90;;;;;;5072569;28;20499;-81
2021/07/03 03:05:52;;;;;;;6.10;5.40;;;18.10;99.90;;;;;;5071322;28;20074;-81
2021/07/03 03:08:18;;;;;;;6.50;4.50;;;18.00;99.90;;;;;;5072602;28;20107;-81
2021/07/03 03:10:44;;;;;;;7.82;5.43;;;17.80;99.90;;;;;;5072296;28;20374;-81
2021/07/03 03:13:09;;;;;;;6.05;5.50;;;17.70;99.90;;;;;;5072401;28;20103;-81
2021/07/03 03:15:35;;;;;;;7.90;5.28;;;17.70;99.90;;;;;;5072219;28;20070;-82
2021/07/03 03:18:01;;;;;;;5.85;4.90;;;17.70;99.90;;;;;;5072414;28;20055;-81
2021/07/03 03:20:27;;;;;;;5.95;5.35;;;17.80;99.90;;;;;;5072212;28;20056;-81
2021/07/03 03:22:54;;;;;;;5.78;5.03;;;17.90;99.90;;;;;;5072196;28;20068;-81
2021/07/03 03:25:20;;;;;;;6.53;5.93;;;17.80;99.90;;;;;;5072429;28;20048;-81
2021/07/03 03:27:45;;;;;;;6.50;5.90;;;17.80;99.90;;;;;;5072231;28;20082;-81
2021/07/03 03:30:12;;;;;;;9.05;7.28;;;17.80;99.90;;;;;;5072029;28;20024;-81
2021/07/03 03:32:37;;;;;;;6.97;6.03;;;17.80;99.90;;;;;;5072256;28;20670;-81
2021/07/03 03:35:04;;;;;;;8.13;6.72;;;17.90;99.90;;;;;;5072236;28;20070;-81
2021/07/03 03:37:30;;;;;;;6.85;6.25;;;17.90;99.90;;;;;;5072278;28;20061;-81
2021/07/03 03:39:55;;;;;;;7.25;6.28;;;18.00;99.90;;;;;;5072161;28;20055;-81
2021/07/03 03:42:21;;;;;;;5.78;4.78;;;18.00;99.90;;;;;;5072150;28;20103;-81
2021/07/03 03:44:47;;;;;;;7.70;5.53;;;17.90;99.90;;;;;;5071732;28;20369;-81
2021/07/03 03:47:13;;;;;;;6.13;5.53;;;17.70;99.90;;;;;;5072484;28;20444;-81
2021/07/03 03:49:38;;;;;;;6.68;5.13;;;17.70;99.90;;;;;;5072179;28;20021;-81
2021/07/03 03:52:04;;;;;;;6.10;4.47;;;17.70;99.90;;;;;;5072223;28;20078;-81
2021/07/03 03:54:30;;;;;;;6.18;5.00;;;17.60;99.90;;;;;;5072052;28;20107;-81
2021/07/03 03:59:41;;;;;;;6.38;5.70;;;17.70;99.90;;;;;;5071779;28;20071;-81
2021/07/03 04:02:06;;;;;;;8.50;6.18;;;17.80;99.90;;;;;;5071886;28;20059;-81
2021/07/03 04:04:32;;;;;;;8.32;6.38;;;17.80;99.90;;;;;;5072240;28;20067;-82
2021/07/03 04:06:58;;;;;;;5.78;5.28;;;17.90;99.90;;;;;;5071786;28;20481;-81
2021/07/03 04:09:24;;;;;;;6.15;5.45;;;17.90;99.90;;;;;;5072041;28;20027;-81
2021/07/03 04:11:49;;;;;;;7.80;5.32;;;17.70;99.90;;;;;;5071936;28;20033;-81
2021/07/03 04:14:15;;;;;;;10.35;5.75;;;17.70;99.90;;;;;;5071685;28;20020;-81
2021/07/03 04:16:41;;;;;;;6.18;5.65;;;17.40;99.90;;;;;;5071842;28;20024;-81
2021/07/03 04:19:07;;;;;;;8.55;5.28;;;17.30;99.90;;;;;;5071965;28;20025;-81
2021/07/03 04:21:32;;;;;;;6.03;5.53;;;17.20;99.90;;;;;;5071632;28;20048;-81
2021/07/03 04:23:58;;;;;;;10.05;5.25;;;17.40;99.90;;;;;;5073397;28;20107;-81
2021/07/03 04:26:24;;;;;;;9.38;6.30;;;17.50;99.90;;;;;;5075710;28;20019;-81
2021/07/03 04:28:50;;;;;;;6.72;5.05;;;17.60;99.90;;;;;;5075138;28;20036;-81
2021/07/03 04:31:16;;;;;;;5.65;4.72;;;17.60;99.90;;;;;;5075301;28;20115;-81
2021/07/03 04:33:42;;;;;;;7.85;5.45;;;17.50;99.90;;;;;;5075388;28;20111;-81
2021/07/03 04:36:07;;;;;;;7.32;4.82;;;17.50;99.90;;;;;;5075394;28;20056;-81
2021/07/03 04:38:33;;;;;;;5.90;5.18;;;17.50;99.90;;;;;;5075245;28;20055;-81
2021/07/03 04:41:00;;;;;;;5.65;5.03;;;17.60;99.90;;;;;;5073874;28;20021;-81
2021/07/03 04:43:26;;;;;;;6.53;4.93;;;17.50;99.90;;;;;;5074931;28;20031;-81
2021/07/03 04:45:51;;;;;;;5.75;4.85;;;17.30;99.90;;;;;;5075198;28;20028;-81
2021/07/03 04:48:17;;;;;;;18.13;5.43;;;17.30;99.90;;;;;;5075073;28;20481;-81
2021/07/03 04:50:43;;;;;;;6.00;5.30;;;17.40;99.90;;;;;;5075107;28;20024;-81
2021/07/03 04:53:09;;;;;;;6.80;6.20;;;17.40;99.90;;;;;;5075061;28;20020;-81
2021/07/03 04:55:35;;;;;;;7.05;6.38;;;17.50;99.90;;;;;;5075086;28;20391;-81
2021/07/03 04:58:01;;;;;;;7.00;6.25;;;17.70;99.90;;;;;;5074548;28;20505;-81
2021/07/03 05:00:26;;;;;;;6.03;5.00;;;17.90;99.90;;;;;;5074801;28;20103;-81
2021/07/03 05:02:52;;;;;;;8.60;5.60;;;17.70;99.90;;;;;;5074669;28;20025;-81
2021/07/03 05:05:18;;;;;;;4.68;4.28;;;17.60;99.90;;;;;;5074647;28;20543;-81
2021/07/03 05:07:44;;;;;;;5.22;4.72;;;17.60;99.90;;;;;;5074791;28;20054;-81
2021/07/03 05:10:11;;;;;;;9.40;4.95;;;17.70;99.90;;;;;;5074770;28;20478;-81
2021/07/03 05:12:36;;;;;;;6.65;5.55;;;17.80;99.90;;;;;;5074445;28;20089;-81
2021/07/03 05:15:02;;;;;;;5.43;4.95;;;17.80;99.90;;;;;;5074523;28;20496;-81
2021/07/03 05:17:28;;;;;;;12.48;5.95;;;17.90;99.90;;;;;;5073227;28;20031;-81
2021/07/03 05:19:55;;;;;;;6.38;5.30;;;17.70;99.90;;;;;;5074427;28;20162;-81
2021/07/03 05:22:21;;;;;;;6.35;5.78;;;17.70;99.90;;;;;;5074620;28;20111;-81
2021/07/03 05:24:47;;;;;;;6.10;5.57;;;17.70;99.90;;;;;;5074302;28;20427;-81
2021/07/03 05:27:12;;;;;;;10.98;6.13;;;17.60;99.90;;;;;;5074175;28;20024;-81
2021/07/03 05:29:38;;;;;;;7.03;5.72;;;17.70;99.90;;;;;;5074329;28;20032;-81
2021/07/03 05:32:04;;;;;;;10.70;6.75;;;17.70;99.90;;;;;;5074144;28;20017;-81
2021/07/03 05:34:30;;;;;;;7.68;5.97;;;17.80;99.90;;;;;;5074216;28;20029;-81
2021/07/03 05:36:57;;;;;;;7.90;6.07;;;18.00;99.90;;;;;;5072630;28;20047;-81
2021/07/03 05:39:23;;;;;;;7.65;5.88;;;18.30;99.90;;;;;;5074268;28;20032;-81
2021/07/03 05:41:49;;;;;;;5.78;5.28;;;18.50;99.90;;;;;;5073690;28;20021;-81
2021/07/03 05:44:15;;;;;;;8.20;5.53;;;18.40;99.90;;;;;;5074002;28;20028;-81
2021/07/03 05:46:41;;;;;;;7.22;5.28;;;18.50;99.90;;;;;;5072678;28;20023;-81
2021/07/03 05:49:07;;;;;;;6.80;6.07;;;18.60;99.90;;;;;;5074157;28;20082;-81
2021/07/03 05:51:33;;;;;;;6.35;5.40;;;18.80;99.90;;;;;;5073859;28;20040;-81
2021/07/03 05:53:58;;;;;;;6.78;6.03;;;18.90;99.90;;;;;;5073460;28;20067;-81
2021/07/03 05:56:26;;;;;;;7.00;6.30;;;19.00;99.90;;;;;;5073933;28;20036;-81
2021/07/03 05:58:52;;;;;;;8.57;5.82;;;18.90;99.90;;;;;;5072271;28;20400;-81
2021/07/03 06:01:18;;;;;;;6.35;5.75;;;19.10;99.90;;;;;;5073725;28;20111;-81
2021/07/03 06:03:44;;;;;;;8.80;6.57;;;19.10;99.90;;;;;;5073653;28;20136;-81
2021/07/03 06:06:11;;;;;;;7.45;6.20;;;19.20;99.90;;;;;;5073445;28;20059;-81
2021/07/03 06:08:37;;;;;;;10.23;6.28;;;19.10;99.90;;;;;;5073213;28;20024;-81
2021/07/03 06:11:03;;;;;;;11.40;6.00;;;19.10;99.90;;;;;;5073354;28;20017;-81
2021/07/03 06:13:28;;;;;;;9.13;6.57;;;19.10;99.90;;;;;;5073456;28;20025;-81
2021/07/03 06:15:55;;;;;;;7.63;6.82;;;19.20;99.90;;;;;;5073332;28;20392;-81
2021/07/03 06:18:21;;;;;;;7.53;6.85;;;19.30;99.90;;;;;;5073434;28;20037;-81
2021/07/03 06:20:46;;;;;;;7.32;6.68;;;19.50;99.90;;;;;;5073165;28;20099;-81
2021/07/03 06:23:12;;;;;;;8.38;7.20;;;19.60;99.90;;;;;;5072928;28;20059;-81
2021/07/03 06:25:38;;;;;;;8.10;7.40;;;19.70;99.90;;;;;;5073156;28;20021;-81
2021/07/03 06:28:04;;;;;;;9.20;8.02;;;19.60;99.90;;;;;;5073015;28;20102;-81
2021/07/03 06:30:30;;;;;;;10.45;9.45;;;19.90;99.90;;;;;;5073238;28;20040;-81
2021/07/03 06:32:56;;;;;;;10.35;8.48;;;20.30;99.90;;;;;;5073010;28;20381;-81
2021/07/03 06:35:22;;;;;;;9.98;9.00;;;20.60;99.90;;;;;;5073000;28;20028;-81
2021/07/03 06:37:47;;;;;;;10.30;8.40;;;20.60;99.90;;;;;;5072674;28;20032;-81
2021/07/03 06:40:13;;;;;;;11.60;8.52;;;20.30;99.90;;;;;;5072850;28;20031;-81
2021/07/03 06:42:39;;;;;;;11.10;9.05;;;20.30;99.90;;;;;;5072912;28;20024;-81
2021/07/03 06:45:06;;;;;;;10.98;9.23;;;20.40;99.90;;;;;;5072897;28;20388;-81
2021/07/03 06:47:31;;;;;;;11.18;9.57;;;20.30;99.90;;;;;;5072373;28;20524;-81
2021/07/03 06:49:57;;;;;;;13.52;10.43;;;20.20;99.90;;;;;;5072791;28;20071;-81
2021/07/03 06:52:23;;;;;;;11.23;9.50;;;20.20;99.90;;;;;;5072488;28;20032;-81
2021/07/03 06:54:49;;;;;;;11.40;10.20;;;20.10;99.90;;;;;;5072731;28;20029;-81
2021/07/03 06:57:14;;;;;;;11.70;10.40;;;20.10;99.90;;;;;;5072695;28;20027;-81
2021/07/03 06:59:40;;;;;;;14.07;10.90;;;20.10;99.90;;;;;;5072643;28;20048;-81
2021/07/03 07:02:07;;;;;;;11.05;9.82;;;20.20;99.90;;;;;;5072308;28;20047;-81
2021/07/03 07:04:33;;;;;;;10.13;8.57;;;20.30;99.90;;;;;;5072601;28;20028;-81
2021/07/03 07:06:59;;;;;;;11.02;9.70;;;20.40;99.90;;;;;;5072232;28;20049;-81
2021/07/03 07:09:26;;;;;;;10.52;9.60;;;20.40;99.90;;;;;;5072332;28;20396;-81
2021/07/03 07:11:56;;;;;;;10.93;9.48;;;20.50;99.90;;;;;;5072675;28;20029;-81
2021/07/03 07:14:22;;;;;;;14.80;10.07;;;20.70;99.90;;;;;;5072609;28;20045;-81
2021/07/03 07:16:48;;;;;;;9.95;9.05;;;21.00;99.90;;;;;;5072533;28;20055;-81
2021/07/03 07:19:13;;;;;;;11.85;9.13;;;21.30;99.90;;;;;;5072246;28;20122;-81
2021/07/03 07:21:39;;;;;;;10.52;9.40;;;21.40;99.90;;;;;;5071934;28;20102;-81
2021/07/03 07:24:05;;;;;;;9.73;8.70;;;21.30;99.90;;;;;;5072255;28;20031;-81
2021/07/03 07:26:32;;;;;;;9.95;9.02;;;21.20;99.90;;;;;;5072401;28;20062;-81
2021/07/03 07:28:58;;;;;;;9.93;8.75;;;21.20;99.90;;;;;;5071120;28;20023;-81
2021/07/03 07:31:24;;;;;;;11.40;9.23;;;21.30;99.90;;;;;;5072196;28;20032;-81
2021/07/03 07:33:50;;;;;;;15.00;9.27;;;21.30;99.90;;;;;;5072480;28;20032;-81
2021/07/03 07:36:16;;;;;;;11.00;9.88;;;21.30;99.90;;;;;;5071932;28;20032;-81
2021/07/03 07:38:42;;;;;;;11.05;9.95;;;21.20;99.90;;;;;;5072280;28;20094;-81
2021/07/03 07:41:08;;;;;;;12.63;9.25;;;21.20;99.90;;;;;;5070810;28;20031;-81
2021/07/03 07:43:34;;;;;;;11.48;10.27;;;21.30;99.90;;;;;;5072148;28;20020;-81
2021/07/03 07:46:00;;;;;;;12.00;10.80;;;21.30;99.90;;;;;;5072199;28;20096;-81
2021/07/03 07:48:28;;;;;;;12.63;11.43;;;21.40;99.90;;;;;;5072249;28;20029;-81
2021/07/03 07:51:00;;;;;;;15.68;12.95;;;21.50;99.90;;;;;;5071894;28;20085;-81
2021/07/03 07:53:26;;;;;;;11.90;10.90;;;21.60;99.90;;;;;;5072157;28;20285;-81
2021/07/03 07:55:52;;;;;;;12.85;11.13;;;21.80;99.90;;;;;;5072039;28;20546;-81
2021/07/03 07:58:17;;;;;;;17.50;12.32;;;22.20;99.90;;;;;;5074301;28;20032;-81
2021/07/03 08:00:44;;;;;;;13.07;11.32;;;22.50;99.90;;;;;;5075834;28;20037;-81
2021/07/03 08:03:10;;;;;;;15.70;12.63;;;22.80;99.90;;;;;;5075831;28;20023;-81
2021/07/03 08:05:35;;;;;;;13.82;12.35;;;22.90;99.90;;;;;;5075759;28;20095;-81
2021/07/03 08:08:05;;;;;;;18.00;13.38;;;23.00;99.90;;;;;;5074613;28;20108;-81
2021/07/03 08:10:35;;;;;;;15.45;12.32;;;22.80;99.90;;;;;;5076022;28;20111;-81
2021/07/03 08:13:02;;;;;;;14.13;12.63;;;23.10;99.90;;;;;;5075739;28;20020;-81
2021/07/03 08:15:28;;;;;;;16.63;13.05;;;23.20;99.90;;;;;;5075681;28;20118;-81
2021/07/03 08:17:53;;;;;;;14.32;12.93;;;23.50;99.90;;;;;;5074353;28;20029;-81
2021/07/03 08:20:21;;;;;;;15.93;12.43;;;23.50;99.90;;;;;;5074919;28;20060;-81
2021/07/03 08:22:50;;;;;;;17.00;12.68;;;23.50;99.90;;;;;;5075739;28;20054;-81
2021/07/03 08:25:18;;;;;;;16.15;12.88;;;23.20;99.90;;;;;;5075469;28;20023;-81
2021/07/03 08:27:45;;;;;;;14.20;12.70;;;23.10;99.90;;;;;;5075584;28;20052;-81
2021/07/03 08:30:11;;;;;;;13.73;12.43;;;23.10;99.90;;;;;;5075429;28;20032;-81
2021/07/03 08:32:38;;;;;;;14.55;12.75;;;22.90;99.90;;;;;;5075375;28;20028;-81
2021/07/03 08:35:05;;;;;;;13.10;11.80;;;22.80;99.90;;;;;;5075171;28;20029;-81
2021/07/03 08:37:31;;;;;;;13.38;12.05;;;23.10;99.90;;;;;;5075277;28;20017;-81
2021/07/03 08:39:56;;;;;;;13.30;12.00;;;23.20;99.90;;;;;;5075308;28;20392;-81
2021/07/03 08:42:22;;;;;;;14.32;12.93;;;23.10;99.90;;;;;;5075395;28;20025;-81
2021/07/03 08:44:49;;;;;;;17.52;11.63;;;22.90;99.90;;;;;;5075179;28;20020;-81
2021/07/03 08:47:17;;;;;;;15.38;13.77;;;23.20;99.90;;;;;;5075035;28;20096;-81
2021/07/03 08:49:53;;;;;;;22.98;12.85;;;23.60;99.90;;;;;;5073648;28;20025;-81
2021/07/03 08:52:19;;;;;;;22.58;13.68;;;23.60;99.90;;;;;;5074916;28;20097;-81
2021/07/03 08:54:54;;;;;;;13.50;12.10;;;23.60;99.90;;;;;;5074929;28;20043;-81
2021/07/03 08:57:20;;;;;;;14.00;11.60;;;23.60;99.90;;;;;;5074871;28;20031;-81
2021/07/03 08:59:59;;;;;;;15.10;12.63;;;23.80;99.90;;;;;;5074987;28;20033;-81
2021/07/03 09:02:33;;;;;;;14.55;13.15;;;23.80;99.90;;;;;;5074781;28;20029;-81
2021/07/03 09:04:59;;;;;;;16.42;12.82;;;23.80;99.90;;;;;;5074931;28;20114;-81
2021/07/03 09:07:33;;;;;;;16.23;13.15;;;23.70;99.90;;;;;;5074553;28;20055;-81
2021/07/03 09:09:59;;;;;;;14.50;12.50;;;23.60;99.90;;;;;;5074168;28;20553;-81
2021/07/03 09:12:32;;;;;;;14.10;12.68;;;23.40;99.90;;;;;;5074639;28;20032;-81
2021/07/03 09:15:22;;;;;;;16.25;12.38;;;23.30;99.90;;;;;;5074685;28;20036;-81
2021/07/03 09:17:58;;;;;;;47.78;14.98;;;23.50;99.90;;;;;;5074461;28;20028;-81
2021/07/03 09:20:47;;;;;;;14.48;13.07;;;23.40;99.90;;;;;;5074253;28;20072;-81
2021/07/03 09:23:19;;;;;;;13.18;11.82;;;23.30;99.90;;;;;;5068010;28;20069;-81
2021/07/03 09:25:54;;;;;;;13.80;12.13;;;23.20;99.90;;;;;;5074629;28;20036;-81
2021/07/03 09:28:27;;;;;;;17.45;13.60;;;23.10;99.90;;;;;;5074376;28;20013;-81
2021/07/03 09:31:00;;;;;;;15.77;12.93;;;23.10;99.90;;;;;;5072988;28;20040;-81
2021/07/03 09:33:34;;;;;;;15.18;12.70;;;22.90;99.90;;;;;;5073954;28;20020;-82
2021/07/03 09:36:05;;;;;;;18.30;13.05;;;22.80;99.90;;;;;;5074288;28;20123;-81
2021/07/03 09:38:36;;;;;;;15.10;13.15;;;22.90;99.90;;;;;;5074172;28;20388;-81
2021/07/03 09:41:06;;;;;;;15.32;13.00;;;22.90;99.90;;;;;;5074019;28;20107;-81
2021/07/03 09:43:31;;;;;;;;;;;23.00;99.90;;;;;;5074389;28;20423;-81
2021/07/03 09:45:57;;;;;;;16.23;12.20;;;23.00;99.90;;;;;;5073919;28;19904;-81
2021/07/03 09:48:23;;;;;;;60.03;13.80;;;22.90;99.90;;;;;;5073960;28;20028;-81
2021/07/03 09:50:49;;;;;;;14.07;11.98;;;22.90;99.90;;;;;;5073980;28;20481;-81
2021/07/03 09:53:15;;;;;;;19.27;13.02;;;22.80;99.90;;;;;;5074138;28;20028;-81
2021/07/03 09:55:41;;;;;;;15.93;13.05;;;22.70;99.90;;;;;;5073846;28;20024;-81
2021/07/03 09:58:10;;;;;;;14.43;13.02;;;22.60;99.90;;;;;;5073992;28;20028;-81
2021/07/03 10:00:38;;;;;;;16.77;12.82;;;22.70;99.90;;;;;;5073170;28;20099;-81
2021/07/03 10:03:07;;;;;;;16.55;12.68;;;22.70;99.90;;;;;;5073608;28;20020;-81
2021/07/03 10:05:37;;;;;;;14.73;12.65;;;22.70;99.90;;;;;;5073666;28;20017;-81
2021/07/03 10:08:08;;;;;;;14.20;12.63;;;22.60;99.90;;;;;;5073679;28;20107;-81
2021/07/03 10:10:36;;;;;;;15.57;14.05;;;22.60;99.90;;;;;;5073476;28;20028;-81
2021/07/03 10:13:08;;;;;;;13.00;11.73;;;22.70;99.90;;;;;;5072293;28;20025;-82
2021/07/03 10:15:35;;;;;;;14.57;11.48;;;22.70;99.90;;;;;;5073010;28;20024;-81
2021/07/03 10:18:19;;;;;;;13.05;11.70;;;22.70;99.90;;;;;;5073599;28;20040;-81
2021/07/03 10:20:45;;;;;;;12.60;11.40;;;22.70;99.90;;;;;;5072349;28;20412;-81
2021/07/03 10:23:12;;;;;;;13.18;11.95;;;22.80;99.90;;;;;;5073072;28;20318;-81
2021/07/03 10:25:44;;;;;;;10.70;9.68;;;23.00;99.90;;;;;;5073339;28;20020;-81
2021/07/03 10:28:13;;;;;;;11.73;10.32;;;23.20;99.90;;;;;;5073176;28;20028;-82
2021/07/03 10:30:44;;;;;;;10.13;9.20;;;23.10;99.90;;;;;;5072797;28;20023;-81
2021/07/03 10:33:22;;;;;;;10.70;9.45;;;22.90;99.90;;;;;;5073153;28;20111;-81
2021/07/03 10:35:49;;;;;;;9.90;9.10;;;22.90;99.90;;;;;;5073061;28;20028;-82
2021/07/03 10:38:29;;;;;;;10.52;9.43;;;22.80;99.90;;;;;;5072872;28;20511;-81
2021/07/03 10:41:11;;;;;;;11.45;9.95;;;22.70;99.90;;;;;;5071809;28;20060;-81
2021/07/03 10:43:48;;;;;;;11.00;9.82;;;22.50;99.90;;;;;;5072898;28;20108;-81
2021/07/03 10:46:32;;;;;;;13.32;8.73;;;22.50;99.90;;;;;;5072524;28;20032;-82
2021/07/03 10:49:08;;;;;;;12.77;10.23;;;22.50;99.90;;;;;;5073111;28;20473;-81
2021/07/03 10:51:35;;;;;;;9.68;8.80;;;22.50;99.90;;;;;;5072692;28;20035;-81
2021/07/03 10:54:13;;;;;;;9.18;8.35;;;22.50;99.90;;;;;;5072870;28;20059;-81
2021/07/03 10:56:41;;;;;;;10.27;9.15;;;22.40;99.90;;;;;;5072660;28;20492;-81
2021/07/03 10:59:12;;;;;;;9.60;8.70;;;22.50;99.90;;;;;;5072581;28;20016;-81
2021/07/03 11:01:38;;;;;;;9.68;8.77;;;22.40;99.90;;;;;;5072565;28;20028;-81
2021/07/03 11:04:19;;;;;;;9.27;8.48;;;22.40;99.90;;;;;;5071329;28;20098;-81
2021/07/03 11:06:51;;;;;;;9.10;8.20;;;22.40;99.90;;;;;;5072501;28;20028;-81
2021/07/03 11:09:19;;;;;;;9.35;8.55;;;22.60;99.90;;;;;;5072697;28;20055;-81
2021/07/03 11:11:44;;;;;;;10.52;9.55;;;22.80;99.90;;;;;;5072508;28;20484;-81
2021/07/03 11:14:17;;;;;;;9.50;8.48;;;22.80;99.90;;;;;;5072277;28;20055;-82
2021/07/03 11:16:49;;;;;;;18.73;8.32;;;22.90;99.90;;;;;;5072550;28;20032;-81
2021/07/03 11:19:21;;;;;;;9.60;8.10;;;22.80;99.90;;;;;;5072447;28;20419;-81
2021/07/03 11:21:47;;;;;;;8.80;8.00;;;22.90;99.90;;;;;;5072073;28;20082;-81
2021/07/03 11:24:12;;;;;;;8.95;8.05;;;23.10;99.90;;;;;;5072432;28;20519;-81
2021/07/03 11:26:38;;;;;;;8.32;7.63;;;23.10;99.90;;;;;;5072338;28;20392;-81
2021/07/03 11:29:04;;;;;;;7.68;6.97;;;23.10;99.90;;;;;;5072271;28;20029;-81
2021/07/03 11:31:30;;;;;;;7.72;7.13;;;23.20;99.30;;;;;;5072022;28;20037;-81
2021/07/03 11:33:56;;;;;;;8.20;7.35;;;23.20;98.80;;;;;;5072139;28;20029;-81
2021/07/03 11:36:22;;;;;;;7.65;6.90;;;23.30;98.90;;;;;;5072291;28;20028;-81
2021/07/03 11:38:58;;;;;;;7.70;7.05;;;23.30;99.50;;;;;;5072239;28;20036;-81
2021/07/03 11:41:25;;;;;;;6.72;6.13;;;23.20;99.50;;;;;;5070940;28;20036;-81
2021/07/03 11:44:09;;;;;;;8.20;7.50;;;23.20;99.30;;;;;;5071835;28;20036;-81
2021/07/03 11:46:34;;;;;;;7.47;6.88;;;23.10;99.70;;;;;;5072282;28;20029;-81
2021/07/03 11:49:00;;;;;;;8.50;7.53;;;23.00;99.90;;;;;;5072329;28;20025;-81
2021/07/03 11:51:26;;;;;;;9.57;8.60;;;22.90;99.70;;;;;;5072150;28;20096;-81
2021/07/03 11:53:52;;;;;;;8.82;8.02;;;22.80;99.90;;;;;;5072135;28;20052;-81
2021/07/03 11:56:19;;;;;;;8.30;7.50;;;22.80;99.90;;;;;;5072158;28;20107;-81
2021/07/03 11:58:48;;;;;;;8.27;7.40;;;22.90;97.90;;;;;;5071762;28;20480;-82
2021/07/03 12:01:20;;;;;;;8.77;7.80;;;23.10;99.10;;;;;;5071970;28;20082;-81
2021/07/03 12:03:47;;;;;;;8.35;7.55;;;23.00;99.40;;;;;;5071748;28;20021;-81
2021/07/03 12:06:19;;;;;;;10.15;7.40;;;23.40;98.90;;;;;;5071937;28;20029;-82
2021/07/03 12:08:49;;;;;;;9.38;7.88;;;23.60;98.10;;;;;;5071922;28;20126;-81
2021/07/03 12:11:22;;;;;;;7.20;6.60;;;23.60;96.40;;;;;;5071738;28;20742;-81
2021/07/03 12:13:51;;;;;;;8.48;7.80;;;23.40;98.80;;;;;;5071944;28;20051;-82
2021/07/03 12:16:19;;;;;;;8.32;7.53;;;23.10;97.60;;;;;;5072330;28;20055;-81
2021/07/03 12:18:50;;;;;;;7.25;6.72;;;22.90;99.00;;;;;;5070520;28;20115;-81
2021/07/03 12:21:20;;;;;;;7.35;6.65;;;22.80;98.40;;;;;;5071582;28;20094;-81
2021/07/03 12:23:46;;;;;;;7.78;6.57;;;22.80;99.00;;;;;;5071925;28;20489;-81
2021/07/03 12:26:26;;;;;;;8.15;7.35;;;22.90;99.90;;;;;;5071395;28;20035;-81
2021/07/03 12:29:00;;;;;;;6.70;6.20;;;23.00;99.90;;;;;;5071546;28;20021;-81
2021/07/03 12:31:41;;;;;;;6.88;6.18;;;23.10;99.50;;;;;;5071820;28;20029;-82
2021/07/03 12:34:21;;;;;;;8.38;6.90;;;23.40;97.20;;;;;;5071797;28;20075;-81
2021/07/03 12:36:50;;;;;;;7.15;6.53;;;23.40;96.80;;;;;;5071536;28;20481;-81
2021/07/03 12:39:19;;;;;;;7.05;6.53;;;23.50;96.60;;;;;;5070350;28;20028;-81
2021/07/03 12:41:47;;;;;;;6.50;6.00;;;23.70;97.90;;;;;;5071389;28;20393;-81
2021/07/03 12:44:13;;;;;;;6.90;6.20;;;24.20;96.00;;;;;;5072162;28;20028;-81